createdAt,value
2019-05-17T00:01:40.391Z,15.80
2019-05-17T00:04:07.621Z,19.17
2019-05-17T00:06:36.810Z,16.37
2019-05-17T00:09:07.008Z,15.47
2019-05-17T00:11:36.738Z,16.30
2019-05-17T00:14:03.750Z,17.00
2019-05-17T00:16:30.914Z,13.63
2019-05-17T00:18:58.127Z,16.77
2019-05-17T00:21:27.350Z,19.93
2019-05-17T00:23:54.199Z,23.87
2019-05-17T00:26:21.381Z,24.17
2019-05-17T00:28:48.554Z,30.90
2019-05-17T00:31:17.231Z,23.07
2019-05-17T00:33:44.506Z,25.80
2019-05-17T00:36:11.678Z,21.73
2019-05-17T00:38:48.351Z,18.30
2019-05-17T00:41:07.759Z,21.80
2019-05-17T00:43:36.840Z,29.93
2019-05-17T00:46:03.863Z,24.07
2019-05-17T00:48:31.125Z,40.73
2019-05-17T00:51:02.223Z,18.93
2019-05-17T00:53:27.238Z,20.23
2019-05-17T00:55:54.426Z,35.97
2019-05-17T00:58:21.596Z,39.27
2019-05-17T01:00:48.771Z,42.07
2019-05-17T01:03:16.323Z,78.93
2019-05-17T01:05:44.182Z,26.50
2019-05-17T01:08:11.373Z,45.97
2019-05-17T01:10:38.554Z,22.97
2019-05-17T01:13:06.939Z,36.07
2019-05-17T01:15:37.017Z,115.57
2019-05-17T01:18:03.793Z,149.83
2019-05-17T01:20:30.981Z,165.27
2019-05-17T01:22:58.167Z,163.87
2019-05-17T01:25:27.241Z,148.10
2019-05-17T01:27:56.298Z,38.00
2019-05-17T01:30:23.245Z,70.00
2019-05-17T01:32:50.531Z,101.17
2019-05-17T01:35:17.694Z,30.60
2019-05-17T01:37:47.255Z,16.60
2019-05-17T01:40:13.782Z,116.67
2019-05-17T01:42:40.959Z,14.30
2019-05-17T01:45:09.317Z,10.17
2019-05-17T01:47:36.924Z,35.67
2019-05-17T01:50:07.420Z,165.17
2019-05-17T01:52:36.767Z,176.50
2019-05-17T01:55:06.601Z,85.87
2019-05-17T01:57:34.053Z,37.07
2019-05-17T02:00:01.225Z,58.47
2019-05-17T02:02:30.041Z,19.37
2019-05-17T02:04:57.211Z,43.37
2019-05-17T02:07:26.630Z,103.83
2019-05-17T02:09:53.307Z,21.20
2019-05-17T02:12:20.489Z,51.90
2019-05-17T02:14:47.655Z,96.23
2019-05-17T02:17:17.287Z,65.07
2019-05-17T02:19:43.847Z,26.93
2019-05-17T02:22:11.040Z,27.37
2019-05-17T02:24:38.230Z,49.67
2019-05-17T02:27:05.413Z,102.33
2019-05-17T02:29:32.603Z,125.13
2019-05-17T02:32:03.528Z,41.83
2019-05-17T02:34:28.671Z,48.93
2019-05-17T02:36:55.852Z,93.70
2019-05-17T02:39:23.438Z,25.17
2019-05-17T02:41:53.314Z,8.10
2019-05-17T02:44:23.309Z,29.10
2019-05-17T02:46:48.891Z,54.43
2019-05-17T02:49:16.073Z,47.87
2019-05-17T02:51:43.357Z,88.60
2019-05-17T02:54:13.259Z,208.70
2019-05-17T02:56:39.493Z,18.27
2019-05-17T02:59:06.665Z,76.50
2019-05-17T03:01:33.912Z,46.00
2019-05-17T03:04:03.850Z,30.90
2019-05-17T03:06:32.565Z,20.07
2019-05-17T03:08:58.885Z,16.10
2019-05-17T03:11:26.062Z,40.70
2019-05-17T03:13:53.252Z,20.90
2019-05-17T03:16:23.512Z,18.47
2019-05-17T03:18:49.356Z,7.50
2019-05-17T03:21:16.549Z,27.60
2019-05-17T03:23:43.861Z,40.13
2019-05-17T03:26:13.191Z,49.63
2019-05-17T03:28:42.620Z,22.93
2019-05-17T03:31:16.417Z,31.13
2019-05-17T03:33:38.935Z,19.30
2019-05-17T03:36:07.434Z,36.47
2019-05-17T03:38:35.084Z,10.27
2019-05-17T03:41:13.422Z,6.93
2019-05-17T03:43:34.816Z,9.17
2019-05-17T03:46:02.659Z,10.87
2019-05-17T03:48:28.971Z,25.67
2019-05-17T03:50:56.153Z,22.73
2019-05-17T03:53:23.337Z,12.97
2019-05-17T03:55:53.768Z,16.33
2019-05-17T03:58:19.485Z,6.50
2019-05-17T04:00:46.674Z,24.97
2019-05-17T04:03:13.891Z,12.60
2019-05-17T04:05:43.021Z,26.47
2019-05-17T04:08:13.621Z,12.60
2019-05-17T04:10:42.359Z,11.20
2019-05-17T04:13:07.830Z,43.13
2019-05-17T04:15:35.003Z,13.00
2019-05-17T04:18:04.136Z,8.27
2019-05-17T04:20:33.165Z,9.63
2019-05-17T04:23:03.450Z,8.13
2019-05-17T04:25:28.906Z,11.77
2019-05-17T04:27:56.089Z,18.67
2019-05-17T04:30:23.590Z,18.53
2019-05-17T04:32:52.638Z,18.20
2019-05-17T04:35:23.007Z,8.93
2019-05-17T04:37:49.198Z,9.90
2019-05-17T04:40:16.395Z,7.20
2019-05-17T04:42:44.400Z,7.10
2019-05-17T04:45:12.985Z,71.57
2019-05-17T04:47:44.031Z,19.73
2019-05-17T04:50:13.014Z,18.37
2019-05-17T04:52:38.649Z,7.70
2019-05-17T04:55:05.895Z,6.73
2019-05-17T04:57:33.174Z,25.17
2019-05-17T05:00:03.891Z,8.17
2019-05-17T05:02:29.311Z,7.30
2019-05-17T05:04:56.498Z,8.77
2019-05-17T05:07:23.669Z,9.93
2019-05-17T05:09:52.331Z,8.97
2019-05-17T05:12:22.632Z,18.37
2019-05-17T05:14:48.647Z,13.30
2019-05-17T05:17:15.819Z,10.67
2019-05-17T05:19:43.006Z,9.70
2019-05-17T05:22:12.958Z,29.50
2019-05-17T05:24:39.111Z,13.73
2019-05-17T05:27:06.286Z,16.93
2019-05-17T05:29:37.063Z,25.70
2019-05-17T05:32:04.235Z,15.37
2019-05-17T05:34:32.238Z,11.70
2019-05-17T05:37:01.919Z,12.70
2019-05-17T05:39:28.774Z,14.07
2019-05-17T05:42:06.789Z,14.70
2019-05-17T05:44:24.866Z,15.73
2019-05-17T05:46:52.042Z,15.73
2019-05-17T05:49:21.561Z,16.67
2019-05-17T05:51:48.129Z,14.20
2019-05-17T05:54:15.305Z,12.73
2019-05-17T05:56:42.566Z,14.40
2019-05-17T05:59:12.087Z,14.13
2019-05-17T06:01:41.896Z,12.93
2019-05-17T06:04:08.311Z,18.17
2019-05-17T06:06:35.500Z,17.57
2019-05-17T06:09:03.663Z,15.27
2019-05-17T06:11:32.176Z,17.73
2019-05-17T06:14:01.588Z,16.03
2019-05-17T06:16:28.806Z,19.67
2019-05-17T06:18:55.986Z,15.83
2019-05-17T06:21:23.174Z,17.07
2019-05-17T06:23:51.650Z,15.97
2019-05-17T06:26:19.266Z,15.87
2019-05-17T06:28:46.455Z,14.47
2019-05-17T06:31:15.200Z,13.67
2019-05-17T06:33:42.541Z,15.47
2019-05-17T06:36:09.723Z,16.50
2019-05-17T06:38:36.930Z,13.47
2019-05-17T06:41:04.114Z,14.00
2019-05-17T06:43:32.335Z,15.30
2019-05-17T06:46:01.735Z,15.67
2019-05-17T06:48:28.976Z,17.83
2019-05-17T06:50:56.181Z,18.63
2019-05-17T06:53:23.366Z,16.97
2019-05-17T06:55:50.548Z,14.00
2019-05-17T06:58:17.753Z,16.80
2019-05-17T07:00:44.953Z,17.57
2019-05-17T07:03:12.139Z,15.97
2019-05-17T07:05:43.903Z,16.33
2019-05-17T07:08:11.136Z,17.93
2019-05-17T07:10:39.790Z,17.93
2019-05-17T07:13:07.238Z,14.47
2019-05-17T07:15:46.878Z,16.63
2019-05-17T07:18:03.317Z,15.70
2019-05-17T07:20:30.520Z,15.33
2019-05-17T07:23:00.385Z,16.40
2019-05-17T07:25:26.868Z,14.73
2019-05-17T07:27:54.049Z,13.60
2019-05-17T07:30:21.225Z,14.40
2019-05-17T07:32:49.756Z,15.93
2019-05-17T07:35:19.620Z,13.60
2019-05-17T07:37:46.287Z,18.57
2019-05-17T07:40:13.474Z,18.93
2019-05-17T07:42:40.735Z,15.90
2019-05-17T07:45:10.133Z,14.57
2019-05-17T07:47:36.825Z,15.43
2019-05-17T07:50:06.909Z,16.93
2019-05-17T07:52:34.094Z,19.20
2019-05-17T07:55:02.595Z,16.30
2019-05-17T07:57:30.234Z,14.70
2019-05-17T07:59:59.775Z,14.47
2019-05-17T08:02:26.347Z,14.10
2019-05-17T08:04:53.525Z,14.43
2019-05-17T08:07:20.708Z,12.13
2019-05-17T08:09:50.585Z,13.93
2019-05-17T08:12:16.794Z,13.63
2019-05-17T08:14:43.997Z,12.90
2019-05-17T08:17:16.762Z,11.13
2019-05-17T08:19:44.775Z,10.30
2019-05-17T08:22:11.964Z,14.30
2019-05-17T08:24:39.953Z,11.43
2019-05-17T08:27:10.328Z,12.63
2019-05-17T08:29:36.877Z,12.30
2019-05-17T08:32:04.059Z,9.07
2019-05-17T08:34:31.225Z,8.80
2019-05-17T08:37:00.935Z,9.37
2019-05-17T08:39:27.290Z,12.30
2019-05-17T08:41:54.510Z,10.80
2019-05-17T08:44:21.673Z,9.23
2019-05-17T08:46:50.089Z,9.40
2019-05-17T08:49:17.440Z,8.97
2019-05-17T08:51:45.783Z,8.37
2019-05-17T08:54:12.938Z,8.07
2019-05-17T08:56:40.391Z,11.60
2019-05-17T08:59:09.627Z,8.93
2019-05-17T09:01:39.230Z,8.10
2019-05-17T09:04:05.873Z,7.23
2019-05-17T09:06:33.050Z,7.97
2019-05-17T09:09:00.799Z,10.23
2019-05-17T09:11:30.293Z,10.10
2019-05-17T09:14:01.675Z,9.03
2019-05-17T09:16:26.684Z,7.73
2019-05-17T09:18:53.850Z,10.27
2019-05-17T09:21:22.011Z,7.07
2019-05-17T09:23:50.377Z,8.30
2019-05-17T09:26:19.991Z,8.23
2019-05-17T09:28:49.817Z,9.97
2019-05-17T09:31:16.350Z,12.47
2019-05-17T09:33:43.539Z,8.37
2019-05-17T09:36:10.733Z,7.87
2019-05-17T09:38:40.199Z,6.97
2019-05-17T09:41:09.212Z,7.83
2019-05-17T09:43:35.723Z,9.00
2019-05-17T09:46:02.918Z,8.50
2019-05-17T09:48:30.700Z,7.10
2019-05-17T09:50:59.988Z,8.40
2019-05-17T09:53:27.699Z,7.43
2019-05-17T09:55:54.876Z,8.97
2019-05-17T09:58:22.085Z,7.50
2019-05-17T10:00:49.607Z,10.10
2019-05-17T10:03:16.901Z,6.83
2019-05-17T10:05:44.055Z,7.40
2019-05-17T10:08:11.231Z,7.20
2019-05-17T10:10:40.265Z,6.80
2019-05-17T10:13:09.546Z,7.00
2019-05-17T10:15:36.226Z,6.73
2019-05-17T10:18:03.390Z,7.97
2019-05-17T10:20:30.584Z,7.33
2019-05-17T10:22:59.611Z,7.37
2019-05-17T10:25:29.372Z,6.97
2019-05-17T10:27:56.005Z,8.97
2019-05-17T10:30:23.249Z,6.90
2019-05-17T10:32:50.805Z,8.60
2019-05-17T10:35:19.962Z,6.90
2019-05-17T10:37:47.469Z,7.20
2019-05-17T10:40:14.655Z,6.37
2019-05-17T10:42:41.828Z,7.10
2019-05-17T10:45:10.845Z,10.87
2019-05-17T10:47:39.630Z,6.47
2019-05-17T10:50:06.801Z,5.47
2019-05-17T10:52:33.970Z,6.63
2019-05-17T10:55:01.154Z,6.33
2019-05-17T10:57:30.311Z,7.33
2019-05-17T10:59:59.162Z,6.70
2019-05-17T11:02:26.107Z,7.67
2019-05-17T11:04:53.285Z,8.03
2019-05-17T11:07:20.462Z,8.70
2019-05-17T11:09:50.550Z,7.70
2019-05-17T11:12:16.552Z,6.43
2019-05-17T11:14:55.902Z,7.67
2019-05-17T11:17:12.649Z,7.07
2019-05-17T11:19:39.822Z,7.13
2019-05-17T11:22:07.000Z,6.50
2019-05-17T11:24:34.194Z,7.67
2019-05-17T11:27:01.422Z,7.23
2019-05-17T11:29:29.286Z,7.50
2019-05-17T11:31:56.498Z,7.63
2019-05-17T11:34:25.668Z,8.67
2019-05-17T11:36:52.558Z,8.43
2019-05-17T11:39:19.755Z,6.87
2019-05-17T11:41:46.921Z,9.97
2019-05-17T11:44:14.099Z,7.07
2019-05-17T11:46:41.266Z,7.00
2019-05-17T11:49:08.447Z,8.13
2019-05-17T11:51:35.614Z,6.73
2019-05-17T11:54:02.795Z,6.30
2019-05-17T11:56:29.975Z,6.30
2019-05-17T11:58:57.141Z,8.63
2019-05-17T12:01:24.331Z,6.17
2019-05-17T12:03:51.491Z,9.47
2019-05-17T12:06:18.675Z,7.87
2019-05-17T12:08:45.914Z,8.67
2019-05-17T12:11:13.091Z,7.03
2019-05-17T12:13:43.363Z,7.17
2019-05-17T12:16:09.156Z,6.83
2019-05-17T12:18:36.353Z,8.80
2019-05-17T12:21:03.518Z,6.67
2019-05-17T12:23:30.772Z,6.10
2019-05-17T12:25:57.946Z,7.10
2019-05-17T12:28:25.986Z,7.00
2019-05-17T12:30:53.158Z,7.13
2019-05-17T12:33:20.347Z,8.53
2019-05-17T12:35:47.507Z,7.23
2019-05-17T12:38:14.695Z,7.57
2019-05-17T12:40:41.883Z,7.80
2019-05-17T12:43:09.051Z,11.03
2019-05-17T12:45:36.237Z,8.57
2019-05-17T12:48:03.396Z,7.13
2019-05-17T12:50:30.642Z,7.00
2019-05-17T12:52:57.823Z,7.27
2019-05-17T12:55:25.018Z,12.27
2019-05-17T12:57:52.258Z,6.63
2019-05-17T13:00:19.430Z,7.00
2019-05-17T13:02:46.625Z,6.87
2019-05-17T13:05:13.782Z,7.83
2019-05-17T13:07:40.962Z,6.00
2019-05-17T13:10:08.140Z,6.70
2019-05-17T13:12:35.296Z,9.90
2019-05-17T13:15:02.482Z,8.33
2019-05-17T13:17:29.737Z,8.93
2019-05-17T13:19:56.940Z,8.53
2019-05-17T13:22:24.125Z,6.70
2019-05-17T13:24:51.380Z,6.57
2019-05-17T13:27:18.563Z,7.17
2019-05-17T13:29:45.764Z,8.47
2019-05-17T13:32:13.024Z,6.13
2019-05-17T13:34:40.195Z,9.57
2019-05-17T13:37:07.372Z,8.07
2019-05-17T13:39:34.561Z,8.80
2019-05-17T13:42:01.754Z,7.33
2019-05-17T13:44:28.917Z,6.23
2019-05-17T13:46:56.100Z,6.77
2019-05-17T13:49:23.288Z,7.17
2019-05-17T13:51:50.450Z,5.93
2019-05-17T13:54:17.626Z,6.90
2019-05-17T13:56:44.806Z,9.03
2019-05-17T13:59:11.979Z,6.67
2019-05-17T14:01:39.144Z,6.03
2019-05-17T14:04:06.333Z,6.33
2019-05-17T14:06:33.581Z,7.50
2019-05-17T14:09:00.834Z,5.90
2019-05-17T14:11:27.999Z,5.80
2019-05-17T14:13:55.182Z,7.00
2019-05-17T14:16:22.344Z,5.80
2019-05-17T14:18:49.526Z,5.70
2019-05-17T14:21:16.694Z,5.80
2019-05-17T14:23:43.892Z,5.80
2019-05-17T14:26:11.063Z,6.40
2019-05-17T14:28:38.300Z,6.10
2019-05-17T14:31:05.498Z,5.97
2019-05-17T14:33:32.687Z,5.73
2019-05-17T14:35:59.945Z,6.00
2019-05-17T14:38:27.236Z,8.30
2019-05-17T14:41:06.617Z,5.93
2019-05-17T14:43:23.348Z,6.90
2019-05-17T14:45:50.517Z,6.70
2019-05-17T14:48:17.688Z,6.83
2019-05-17T14:50:44.879Z,6.07
2019-05-17T14:53:12.044Z,5.90
2019-05-17T14:55:39.240Z,6.00
2019-05-17T14:58:06.403Z,5.57
2019-05-17T15:00:33.572Z,6.10
2019-05-17T15:03:00.747Z,6.50
2019-05-17T15:05:27.927Z,9.20
2019-05-17T15:07:55.117Z,5.53
2019-05-17T15:10:22.292Z,6.70
2019-05-17T15:12:49.485Z,7.37
2019-05-17T15:15:25.557Z,6.97
2019-05-17T15:17:45.647Z,9.43
2019-05-17T15:20:12.822Z,6.43
2019-05-17T15:22:40.003Z,6.23
2019-05-17T15:25:07.203Z,5.50
2019-05-17T15:27:34.447Z,6.57
2019-05-17T15:30:01.616Z,5.93
2019-05-17T15:32:28.874Z,6.40
2019-05-17T15:34:56.038Z,5.43
2019-05-17T15:37:23.240Z,7.27
2019-05-17T15:39:50.402Z,9.17
2019-05-17T15:42:17.588Z,8.03
2019-05-17T15:44:44.755Z,5.53
2019-05-17T15:47:11.987Z,5.87
2019-05-17T15:49:39.167Z,5.13
2019-05-17T15:52:06.355Z,5.50
2019-05-17T15:54:33.553Z,6.73
2019-05-17T15:57:00.720Z,5.23
2019-05-17T15:59:27.916Z,5.70
2019-05-17T16:01:55.193Z,5.67
2019-05-17T16:04:22.451Z,14.47
2019-05-17T16:06:49.691Z,7.30
2019-05-17T16:09:16.917Z,31.20
2019-05-17T16:11:44.097Z,5.13
2019-05-17T16:14:11.332Z,5.60
2019-05-17T16:16:38.500Z,5.43
2019-05-17T16:19:05.703Z,5.00
2019-05-17T16:21:32.895Z,5.33
2019-05-17T16:24:00.091Z,5.93
2019-05-17T16:26:27.326Z,5.23
2019-05-17T16:28:54.516Z,5.30
2019-05-17T16:31:21.677Z,6.70
2019-05-17T16:33:50.846Z,5.30
2019-05-17T16:36:17.787Z,5.07
2019-05-17T16:38:44.994Z,4.73
2019-05-17T16:41:12.215Z,6.10
2019-05-17T16:43:39.392Z,5.93
2019-05-17T16:46:06.562Z,7.50
2019-05-17T16:48:33.731Z,5.07
2019-05-17T16:51:00.915Z,7.40
2019-05-17T16:53:28.070Z,5.00
2019-05-17T16:55:55.262Z,3.90
2019-05-17T16:58:22.443Z,4.17
2019-05-17T17:00:49.646Z,4.73
2019-05-17T17:03:16.894Z,6.03
2019-05-17T17:05:44.079Z,4.43
2019-05-17T17:08:11.257Z,5.80
2019-05-17T17:10:38.433Z,7.33
2019-05-17T17:13:05.616Z,5.33
2019-05-17T17:15:32.829Z,5.43
2019-05-17T17:17:59.994Z,4.43
2019-05-17T17:20:27.195Z,6.27
2019-05-17T17:22:54.438Z,8.90
2019-05-17T17:25:21.647Z,12.47
2019-05-17T17:27:48.819Z,6.83
2019-05-17T17:30:15.999Z,5.63
2019-05-17T17:32:43.179Z,4.90
2019-05-17T17:35:10.386Z,4.50
2019-05-17T17:37:37.611Z,5.30
2019-05-17T17:40:05.815Z,5.70
2019-05-17T17:42:33.000Z,5.37
2019-05-17T17:45:00.239Z,5.20
2019-05-17T17:47:27.448Z,5.40
2019-05-17T17:49:54.704Z,5.73
2019-05-17T17:52:21.870Z,4.93
2019-05-17T17:54:49.083Z,6.80
2019-05-17T17:57:16.239Z,6.33
2019-05-17T17:59:43.408Z,6.07
2019-05-17T18:02:10.590Z,6.63
2019-05-17T18:04:37.750Z,7.20
2019-05-17T18:07:05.417Z,5.67
2019-05-17T18:09:32.611Z,7.20
2019-05-17T18:11:59.782Z,7.07
2019-05-17T18:14:26.943Z,6.10
2019-05-17T18:16:54.140Z,7.93
2019-05-17T18:19:21.608Z,10.60
2019-05-17T18:21:49.021Z,7.53
2019-05-17T18:24:16.195Z,6.90
2019-05-17T18:26:44.014Z,6.73
2019-05-17T18:29:11.174Z,7.57
2019-05-17T18:31:38.364Z,9.67
2019-05-17T18:34:05.584Z,7.17
2019-05-17T18:36:32.791Z,7.37
2019-05-17T18:38:59.960Z,8.53
2019-05-17T18:41:27.140Z,7.27
2019-05-17T18:43:54.326Z,6.90
2019-05-17T18:46:21.516Z,8.53
2019-05-17T18:48:48.677Z,9.20
2019-05-17T18:51:15.870Z,7.07
2019-05-17T18:53:43.042Z,8.70
2019-05-17T18:56:10.236Z,8.77
2019-05-17T18:58:39.293Z,7.47
2019-05-17T19:01:06.413Z,8.97
2019-05-17T19:03:33.616Z,12.73
2019-05-17T19:06:00.853Z,7.20
2019-05-17T19:08:28.070Z,9.67
2019-05-17T19:10:55.240Z,7.80
2019-05-17T19:13:22.424Z,9.23
2019-05-17T19:15:49.602Z,8.80
2019-05-17T19:18:16.781Z,8.37
2019-05-17T19:20:44.247Z,8.37
2019-05-17T19:23:11.458Z,7.63
2019-05-17T19:25:38.724Z,8.37
2019-05-17T19:28:05.957Z,9.50
2019-05-17T19:30:33.130Z,14.03
2019-05-17T19:33:00.314Z,10.07
2019-05-17T19:35:27.495Z,9.70
2019-05-17T19:37:54.687Z,14.03
2019-05-17T19:40:21.878Z,9.50
2019-05-17T19:42:49.120Z,10.23
2019-05-17T19:45:16.289Z,8.87
2019-05-17T19:47:43.500Z,10.90
2019-05-17T19:50:10.680Z,8.80
2019-05-17T19:52:37.873Z,10.40
2019-05-17T19:55:05.274Z,10.47
2019-05-17T19:57:32.472Z,10.87
2019-05-17T19:59:59.663Z,10.50
2019-05-17T20:02:26.941Z,9.30
2019-05-17T20:04:54.132Z,10.73
2019-05-17T20:07:21.431Z,11.13
2019-05-17T20:09:48.648Z,10.50
2019-05-17T20:12:15.842Z,10.20
2019-05-17T20:14:43.011Z,10.67
2019-05-17T20:17:12.400Z,10.80
2019-05-17T20:19:39.108Z,11.80
2019-05-17T20:22:06.308Z,13.07
2019-05-17T20:24:33.514Z,13.70
2019-05-17T20:27:00.686Z,12.70
2019-05-17T20:29:27.943Z,13.27
2019-05-17T20:31:55.118Z,10.40
2019-05-17T20:34:22.298Z,13.17
2019-05-17T20:36:49.479Z,11.60
2019-05-17T20:39:16.681Z,12.67
2019-05-17T20:41:43.870Z,11.83
2019-05-17T20:44:11.067Z,12.33
2019-05-17T20:46:38.240Z,12.47
2019-05-17T20:49:05.432Z,12.27
2019-05-17T20:51:32.721Z,12.73
2019-05-17T20:53:59.925Z,12.40
2019-05-17T20:56:32.944Z,11.00
2019-05-17T20:58:56.019Z,12.53
2019-05-17T21:01:23.229Z,12.63
2019-05-17T21:03:50.471Z,12.03
2019-05-17T21:06:17.667Z,11.53
2019-05-17T21:08:46.290Z,12.63
2019-05-17T21:11:13.773Z,12.37
2019-05-17T21:13:40.952Z,13.37
2019-05-17T21:16:08.118Z,12.10
2019-05-17T21:18:35.329Z,11.87
2019-05-17T21:21:02.526Z,11.53
2019-05-17T21:23:29.700Z,14.30
2019-05-17T21:25:59.315Z,11.43
2019-05-17T21:28:25.874Z,12.37
2019-05-17T21:30:53.138Z,11.57
2019-05-17T21:33:20.327Z,11.17
2019-05-17T21:35:47.571Z,12.40
2019-05-17T21:38:14.764Z,12.03
2019-05-17T21:40:41.944Z,12.23
2019-05-17T21:43:09.129Z,11.07
2019-05-17T21:45:36.337Z,11.73
2019-05-17T21:48:03.527Z,13.23
2019-05-17T21:50:30.724Z,12.63
2019-05-17T21:52:57.910Z,12.30
2019-05-17T21:55:25.104Z,16.63
2019-05-17T21:57:52.328Z,11.60
2019-05-17T22:00:22.835Z,11.37
2019-05-17T22:02:50.022Z,12.07
2019-05-17T22:05:17.190Z,13.30
2019-05-17T22:07:44.381Z,15.27
2019-05-17T22:10:11.559Z,14.30
2019-05-17T22:12:38.744Z,13.83
2019-05-17T22:15:05.990Z,11.63
2019-05-17T22:17:33.172Z,14.03
2019-05-17T22:20:00.372Z,13.20
2019-05-17T22:22:27.592Z,14.70
2019-05-17T22:24:54.830Z,13.97
2019-05-17T22:27:22.075Z,16.00
2019-05-17T22:29:49.258Z,14.00
2019-05-17T22:32:16.451Z,12.97
2019-05-17T22:34:43.623Z,13.70
2019-05-17T22:37:10.886Z,15.97
2019-05-17T22:39:38.068Z,15.77
2019-05-17T22:42:05.243Z,14.67
2019-05-17T22:44:32.431Z,16.30
2019-05-17T22:46:59.625Z,14.10
2019-05-17T22:49:26.816Z,15.23
2019-05-17T22:51:53.999Z,13.20
2019-05-17T22:54:21.186Z,16.60
2019-05-17T22:56:48.447Z,16.10
2019-05-17T22:59:15.625Z,14.23
2019-05-17T23:01:42.814Z,14.37
2019-05-17T23:04:09.985Z,14.07
2019-05-17T23:06:37.182Z,15.27
2019-05-17T23:09:05.336Z,15.90
2019-05-17T23:11:32.510Z,17.73
2019-05-17T23:13:59.717Z,17.43
2019-05-17T23:16:26.910Z,16.07
2019-05-17T23:19:09.979Z,17.57
2019-05-17T23:21:37.149Z,16.30
2019-05-17T23:24:04.331Z,16.83
2019-05-17T23:26:31.501Z,15.90
2019-05-17T23:28:58.694Z,15.50
2019-05-17T23:31:25.870Z,18.43
2019-05-17T23:33:53.054Z,15.20
2019-05-17T23:36:20.234Z,15.10
2019-05-17T23:38:47.423Z,17.03
2019-05-17T23:41:14.626Z,14.70
2019-05-17T23:43:41.803Z,19.13
2019-05-17T23:46:08.987Z,20.93
2019-05-17T23:48:36.158Z,21.27
2019-05-17T23:51:03.618Z,21.43
2019-05-17T23:53:30.788Z,17.77
2019-05-17T23:55:57.974Z,16.57
2019-05-17T23:58:25.170Z,17.00
